sensor_id;sensor_type;location;lat;lon;timestamp;temperature;humidity
13521;DHT22;6832;51.186;3.236;2023-05-10T01:43:37;20.20;61.40
13521;DHT22;6832;51.186;3.236;2023-05-10T03:52:27;19.60;61.10
13521;DHT22;6832;51.186;3.236;2023-05-10T04:14:02;19.70;61.40
13521;DHT22;6832;51.186;3.236;2023-05-10T04:16:32;19.70;61.40
13521;DHT22;6832;51.186;3.236;2023-05-10T04:19:05;19.70;61.40
13521;DHT22;6832;51.186;3.236;2023-05-10T04:21:57;19.70;61.40
13521;DHT22;6832;51.186;3.236;2023-05-10T04:27:37;19.70;61.40
13521;DHT22;6832;51.186;3.236;2023-05-10T04:37:02;19.70;61.40
13521;DHT22;6832;51.186;3.236;2023-05-10T04:43:05;19.70;61.40
13521;DHT22;6832;51.186;3.236;2023-05-10T04:45:33;19.60;61.30
13521;DHT22;6832;51.186;3.236;2023-05-10T04:48:01;19.70;61.40
13521;DHT22;6832;51.186;3.236;2023-05-10T04:50:28;19.60;61.30
13521;DHT22;6832;51.186;3.236;2023-05-10T04:52:57;19.60;61.30
13521;DHT22;6832;51.186;3.236;2023-05-10T04:55:24;19.60;61.30
13521;DHT22;6832;51.186;3.236;2023-05-10T04:57:52;19.70;61.50
13521;DHT22;6832;51.186;3.236;2023-05-10T05:00:21;19.60;61.40
13521;DHT22;6832;51.186;3.236;2023-05-10T05:02:49;19.60;61.40
13521;DHT22;6832;51.186;3.236;2023-05-10T05:05:19;19.60;61.40
13521;DHT22;6832;51.186;3.236;2023-05-10T05:07:48;19.60;61.40
13521;DHT22;6832;51.186;3.236;2023-05-10T05:10:17;19.60;61.40
13521;DHT22;6832;51.186;3.236;2023-05-10T05:12:44;19.60;61.40
13521;DHT22;6832;51.186;3.236;2023-05-10T05:15:11;19.60;61.40
13521;DHT22;6832;51.186;3.236;2023-05-10T05:17:38;19.60;61.40
13521;DHT22;6832;51.186;3.236;2023-05-10T05:20:06;19.60;61.40
13521;DHT22;6832;51.186;3.236;2023-05-10T05:22:33;19.60;61.40
13521;DHT22;6832;51.186;3.236;2023-05-10T05:25:00;19.60;61.40
13521;DHT22;6832;51.186;3.236;2023-05-10T05:27:30;19.60;61.40
13521;DHT22;6832;51.186;3.236;2023-05-10T05:29:58;19.60;61.40
13521;DHT22;6832;51.186;3.236;2023-05-10T05:32:25;19.60;61.40
13521;DHT22;6832;51.186;3.236;2023-05-10T05:34:52;19.60;61.40
13521;DHT22;6832;51.186;3.236;2023-05-10T05:37:20;19.60;61.40
13521;DHT22;6832;51.186;3.236;2023-05-10T05:39:48;19.60;61.40
13521;DHT22;6832;51.186;3.236;2023-05-10T05:42:15;19.60;61.40
13521;DHT22;6832;51.186;3.236;2023-05-10T05:44:45;19.60;61.40
13521;DHT22;6832;51.186;3.236;2023-05-10T05:47:12;19.60;61.40
13521;DHT22;6832;51.186;3.236;2023-05-10T05:49:39;19.60;61.40
13521;DHT22;6832;51.186;3.236;2023-05-10T05:52:07;19.60;61.40
13521;DHT22;6832;51.186;3.236;2023-05-10T05:54:37;19.60;61.40
13521;DHT22;6832;51.186;3.236;2023-05-10T05:57:04;19.60;61.40
13521;DHT22;6832;51.186;3.236;2023-05-10T05:59:31;19.60;61.40
13521;DHT22;6832;51.186;3.236;2023-05-10T06:02:00;19.60;61.50
13521;DHT22;6832;51.186;3.236;2023-05-10T06:04:27;19.60;61.40
13521;DHT22;6832;51.186;3.236;2023-05-10T06:06:54;19.70;61.50
13521;DHT22;6832;51.186;3.236;2023-05-10T06:09:21;19.60;61.50
13521;DHT22;6832;51.186;3.236;2023-05-10T06:11:50;19.70;61.50
13521;DHT22;6832;51.186;3.236;2023-05-10T06:14:17;19.60;61.40
13521;DHT22;6832;51.186;3.236;2023-05-10T06:16:47;19.60;61.50
13521;DHT22;6832;51.186;3.236;2023-05-10T06:19:16;19.60;61.50
13521;DHT22;6832;51.186;3.236;2023-05-10T06:21:45;19.60;61.50
13521;DHT22;6832;51.186;3.236;2023-05-10T06:24:15;19.60;61.50
13521;DHT22;6832;51.186;3.236;2023-05-10T06:26:42;19.60;61.50
13521;DHT22;6832;51.186;3.236;2023-05-10T06:29:09;19.60;61.50
13521;DHT22;6832;51.186;3.236;2023-05-10T06:31:36;19.60;61.50
13521;DHT22;6832;51.186;3.236;2023-05-10T06:34:03;19.60;61.50
13521;DHT22;6832;51.186;3.236;2023-05-10T06:36:31;19.60;61.50
13521;DHT22;6832;51.186;3.236;2023-05-10T06:38:58;19.60;61.50
13521;DHT22;6832;51.186;3.236;2023-05-10T06:41:25;19.60;61.50
13521;DHT22;6832;51.186;3.236;2023-05-10T06:43:54;19.60;61.50
13521;DHT22;6832;51.186;3.236;2023-05-10T06:46:52;19.60;61.50
13521;DHT22;6832;51.186;3.236;2023-05-10T06:49:20;19.60;61.50
13521;DHT22;6832;51.186;3.236;2023-05-10T06:55:16;19.60;61.50
13521;DHT22;6832;51.186;3.236;2023-05-10T06:57:45;19.60;61.50
13521;DHT22;6832;51.186;3.236;2023-05-10T07:00:20;19.60;61.50
13521;DHT22;6832;51.186;3.236;2023-05-10T07:02:48;19.60;61.50
13521;DHT22;6832;51.186;3.236;2023-05-10T07:05:16;19.60;61.50
13521;DHT22;6832;51.186;3.236;2023-05-10T07:07:44;19.60;61.50
13521;DHT22;6832;51.186;3.236;2023-05-10T07:10:14;19.60;61.50
13521;DHT22;6832;51.186;3.236;2023-05-10T07:12:42;19.60;61.50
13521;DHT22;6832;51.186;3.236;2023-05-10T07:15:09;19.70;61.60
13521;DHT22;6832;51.186;3.236;2023-05-10T07:17:37;19.60;61.50
13521;DHT22;6832;51.186;3.236;2023-05-10T07:20:05;19.70;61.60
13521;DHT22;6832;51.186;3.236;2023-05-10T07:22:32;19.60;61.60
13521;DHT22;6832;51.186;3.236;2023-05-10T07:24:59;19.70;61.60
13521;DHT22;6832;51.186;3.236;2023-05-10T07:27:27;19.70;61.70
13521;DHT22;6832;51.186;3.236;2023-05-10T07:29:54;19.70;61.60
13521;DHT22;6832;51.186;3.236;2023-05-10T07:32:22;19.70;61.60
13521;DHT22;6832;51.186;3.236;2023-05-10T07:34:49;19.70;61.70
13521;DHT22;6832;51.186;3.236;2023-05-10T07:37:16;19.70;61.60
13521;DHT22;6832;51.186;3.236;2023-05-10T07:39:49;19.70;61.60
13521;DHT22;6832;51.186;3.236;2023-05-10T07:42:19;19.70;61.60
13521;DHT22;6832;51.186;3.236;2023-05-10T07:44:49;19.70;61.60
13521;DHT22;6832;51.186;3.236;2023-05-10T07:47:20;19.70;61.70
13521;DHT22;6832;51.186;3.236;2023-05-10T07:49:47;19.80;61.80
13521;DHT22;6832;51.186;3.236;2023-05-10T07:52:15;19.80;61.80
13521;DHT22;6832;51.186;3.236;2023-05-10T07:54:42;19.80;61.80
13521;DHT22;6832;51.186;3.236;2023-05-10T07:57:10;19.80;61.70
13521;DHT22;6832;51.186;3.236;2023-05-10T07:59:37;19.80;61.70
13521;DHT22;6832;51.186;3.236;2023-05-10T08:02:06;19.80;61.80
13521;DHT22;6832;51.186;3.236;2023-05-10T08:04:35;19.80;61.80
13521;DHT22;6832;51.186;3.236;2023-05-10T08:07:02;19.80;61.70
13521;DHT22;6832;51.186;3.236;2023-05-10T08:09:29;19.80;61.70
13521;DHT22;6832;51.186;3.236;2023-05-10T08:11:56;19.80;61.80
13521;DHT22;6832;51.186;3.236;2023-05-10T08:14:24;19.90;61.90
13521;DHT22;6832;51.186;3.236;2023-05-10T08:16:52;19.80;61.80
13521;DHT22;6832;51.186;3.236;2023-05-10T08:19:20;19.80;61.80
13521;DHT22;6832;51.186;3.236;2023-05-10T08:21:48;19.90;61.90
13521;DHT22;6832;51.186;3.236;2023-05-10T08:24:19;19.90;62.00
13521;DHT22;6832;51.186;3.236;2023-05-10T08:26:46;19.90;61.90
13521;DHT22;6832;51.186;3.236;2023-05-10T08:29:13;19.90;61.90
13521;DHT22;6832;51.186;3.236;2023-05-10T08:31:40;19.90;62.70
13521;DHT22;6832;51.186;3.236;2023-05-10T08:34:22;19.90;61.90
13521;DHT22;6832;51.186;3.236;2023-05-10T08:36:50;20.00;62.10
13521;DHT22;6832;51.186;3.236;2023-05-10T08:39:17;20.00;62.10
13521;DHT22;6832;51.186;3.236;2023-05-10T08:41:45;20.00;62.10
13521;DHT22;6832;51.186;3.236;2023-05-10T08:44:13;20.00;62.10
13521;DHT22;6832;51.186;3.236;2023-05-10T08:46:45;20.00;62.10
13521;DHT22;6832;51.186;3.236;2023-05-10T08:49:14;20.00;62.10
13521;DHT22;6832;51.186;3.236;2023-05-10T08:51:50;20.00;62.10
13521;DHT22;6832;51.186;3.236;2023-05-10T08:54:18;20.00;62.10
13521;DHT22;6832;51.186;3.236;2023-05-10T08:56:59;20.10;62.20
13521;DHT22;6832;51.186;3.236;2023-05-10T08:59:27;20.10;62.20
13521;DHT22;6832;51.186;3.236;2023-05-10T09:01:56;20.10;62.20
13521;DHT22;6832;51.186;3.236;2023-05-10T09:04:24;20.10;62.20
13521;DHT22;6832;51.186;3.236;2023-05-10T09:06:53;20.10;62.20
13521;DHT22;6832;51.186;3.236;2023-05-10T09:09:20;20.10;62.20
13521;DHT22;6832;51.186;3.236;2023-05-10T09:11:48;20.10;62.20
13521;DHT22;6832;51.186;3.236;2023-05-10T09:14:16;20.10;62.20
13521;DHT22;6832;51.186;3.236;2023-05-10T09:16:46;20.10;62.20
13521;DHT22;6832;51.186;3.236;2023-05-10T09:19:13;20.20;62.30
13521;DHT22;6832;51.186;3.236;2023-05-10T09:21:41;20.20;63.10
13521;DHT22;6832;51.186;3.236;2023-05-10T09:24:09;20.20;62.30
13521;DHT22;6832;51.186;3.236;2023-05-10T09:26:45;20.20;62.30
13521;DHT22;6832;51.186;3.236;2023-05-10T09:29:14;20.20;62.30
13521;DHT22;6832;51.186;3.236;2023-05-10T09:31:45;20.20;62.20
13521;DHT22;6832;51.186;3.236;2023-05-10T09:34:16;20.30;62.40
13521;DHT22;6832;51.186;3.236;2023-05-10T09:36:52;20.20;62.30
13521;DHT22;6832;51.186;3.236;2023-05-10T09:39:30;20.30;62.40
13521;DHT22;6832;51.186;3.236;2023-05-10T09:41:58;20.30;62.40
13521;DHT22;6832;51.186;3.236;2023-05-10T09:44:30;20.30;62.30
13521;DHT22;6832;51.186;3.236;2023-05-10T09:46:57;20.30;62.30
13521;DHT22;6832;51.186;3.236;2023-05-10T09:49:24;20.30;62.30
13521;DHT22;6832;51.186;3.236;2023-05-10T09:52:00;20.30;62.30
13521;DHT22;6832;51.186;3.236;2023-05-10T09:54:30;20.30;62.40
13521;DHT22;6832;51.186;3.236;2023-05-10T09:56:57;20.30;62.40
13521;DHT22;6832;51.186;3.236;2023-05-10T09:59:25;20.40;62.40
13521;DHT22;6832;51.186;3.236;2023-05-10T10:01:55;20.40;62.50
13521;DHT22;6832;51.186;3.236;2023-05-10T10:04:23;20.40;62.50
13521;DHT22;6832;51.186;3.236;2023-05-10T10:06:59;20.40;62.50
13521;DHT22;6832;51.186;3.236;2023-05-10T10:09:27;20.40;62.50
13521;DHT22;6832;51.186;3.236;2023-05-10T10:11:55;20.40;62.40
13521;DHT22;6832;51.186;3.236;2023-05-10T10:14:23;20.40;62.40
13521;DHT22;6832;51.186;3.236;2023-05-10T10:16:51;20.50;62.50
13521;DHT22;6832;51.186;3.236;2023-05-10T10:19:18;20.40;62.40
13521;DHT22;6832;51.186;3.236;2023-05-10T10:21:45;20.50;62.60
13521;DHT22;6832;51.186;3.236;2023-05-10T10:24:12;20.50;62.50
13521;DHT22;6832;51.186;3.236;2023-05-10T10:26:43;20.50;62.50
13521;DHT22;6832;51.186;3.236;2023-05-10T10:29:21;20.50;62.70
13521;DHT22;6832;51.186;3.236;2023-05-10T10:31:57;20.50;62.80
13521;DHT22;6832;51.186;3.236;2023-05-10T10:34:30;20.50;62.70
13521;DHT22;6832;51.186;3.236;2023-05-10T10:36:57;20.50;62.70
13521;DHT22;6832;51.186;3.236;2023-05-10T10:39:27;20.50;62.70
13521;DHT22;6832;51.186;3.236;2023-05-10T10:41:55;20.60;63.60
13521;DHT22;6832;51.186;3.236;2023-05-10T10:47:28;20.60;62.80
13521;DHT22;6832;51.186;3.236;2023-05-10T10:50:06;20.70;63.00
13521;DHT22;6832;51.186;3.236;2023-05-10T10:52:35;20.60;62.90
13521;DHT22;6832;51.186;3.236;2023-05-10T10:55:05;20.70;62.90
13521;DHT22;6832;51.186;3.236;2023-05-10T10:57:43;20.70;62.90
13521;DHT22;6832;51.186;3.236;2023-05-10T11:00:26;20.70;63.00
13521;DHT22;6832;51.186;3.236;2023-05-10T11:02:56;20.70;62.90
13521;DHT22;6832;51.186;3.236;2023-05-10T11:05:35;20.70;62.90
13521;DHT22;6832;51.186;3.236;2023-05-10T11:08:26;20.70;62.90
13521;DHT22;6832;51.186;3.236;2023-05-10T11:11:04;20.80;63.10
13521;DHT22;6832;51.186;3.236;2023-05-10T11:13:37;20.70;62.90
13521;DHT22;6832;51.186;3.236;2023-05-10T11:16:17;20.80;63.00
13521;DHT22;6832;51.186;3.236;2023-05-10T11:18:58;20.80;63.10
13521;DHT22;6832;51.186;3.236;2023-05-10T11:21:27;20.80;63.10
13521;DHT22;6832;51.186;3.236;2023-05-10T11:23:56;20.80;63.00
13521;DHT22;6832;51.186;3.236;2023-05-10T11:26:24;20.80;63.00
13521;DHT22;6832;51.186;3.236;2023-05-10T11:28:53;20.80;63.00
13521;DHT22;6832;51.186;3.236;2023-05-10T11:31:23;20.90;63.20
13521;DHT22;6832;51.186;3.236;2023-05-10T11:33:53;20.90;63.20
13521;DHT22;6832;51.186;3.236;2023-05-10T11:36:22;20.90;63.10
13521;DHT22;6832;51.186;3.236;2023-05-10T11:38:50;20.90;63.20
13521;DHT22;6832;51.186;3.236;2023-05-10T11:41:18;20.90;63.10
13521;DHT22;6832;51.186;3.236;2023-05-10T11:43:49;21.00;63.30
13521;DHT22;6832;51.186;3.236;2023-05-10T11:46:19;21.00;63.30
13521;DHT22;6832;51.186;3.236;2023-05-10T11:48:49;21.00;63.30
13521;DHT22;6832;51.186;3.236;2023-05-10T11:51:20;21.00;63.30
13521;DHT22;6832;51.186;3.236;2023-05-10T11:53:48;21.00;63.30
13521;DHT22;6832;51.186;3.236;2023-05-10T11:56:18;21.00;63.30
13521;DHT22;6832;51.186;3.236;2023-05-10T11:58:52;21.10;63.30
13521;DHT22;6832;51.186;3.236;2023-05-10T12:01:23;21.10;63.40
13521;DHT22;6832;51.186;3.236;2023-05-10T12:03:56;21.10;63.40
13521;DHT22;6832;51.186;3.236;2023-05-10T12:06:26;21.20;63.50
13521;DHT22;6832;51.186;3.236;2023-05-10T12:08:53;21.10;63.30
13521;DHT22;6832;51.186;3.236;2023-05-10T12:11:24;21.20;63.40
13521;DHT22;6832;51.186;3.236;2023-05-10T12:13:51;21.20;63.50
13521;DHT22;6832;51.186;3.236;2023-05-10T12:16:20;21.20;63.40
13521;DHT22;6832;51.186;3.236;2023-05-10T12:18:49;21.20;63.50
13521;DHT22;6832;51.186;3.236;2023-05-10T12:21:19;21.30;63.60
13521;DHT22;6832;51.186;3.236;2023-05-10T12:23:48;21.30;63.60
13521;DHT22;6832;51.186;3.236;2023-05-10T12:26:16;21.30;63.60
13521;DHT22;6832;51.186;3.236;2023-05-10T12:28:43;21.30;63.60
13521;DHT22;6832;51.186;3.236;2023-05-10T12:31:10;21.30;63.60
13521;DHT22;6832;51.186;3.236;2023-05-10T12:33:38;21.30;63.60
13521;DHT22;6832;51.186;3.236;2023-05-10T12:36:08;21.40;63.60
13521;DHT22;6832;51.186;3.236;2023-05-10T12:38:38;21.40;63.60
13521;DHT22;6832;51.186;3.236;2023-05-10T12:41:06;21.40;63.70
13521;DHT22;6832;51.186;3.236;2023-05-10T12:43:34;21.50;63.80
13521;DHT22;6832;51.186;3.236;2023-05-10T12:46:06;21.40;63.60
13521;DHT22;6832;51.186;3.236;2023-05-10T12:48:34;21.50;63.80
13521;DHT22;6832;51.186;3.236;2023-05-10T12:51:02;21.50;63.70
13521;DHT22;6832;51.186;3.236;2023-05-10T12:53:29;21.50;63.70
13521;DHT22;6832;51.186;3.236;2023-05-10T12:55:58;21.50;63.70
13521;DHT22;6832;51.186;3.236;2023-05-10T12:58:25;21.60;63.90
13521;DHT22;6832;51.186;3.236;2023-05-10T13:00:52;21.60;63.80
13521;DHT22;6832;51.186;3.236;2023-05-10T13:03:19;21.70;63.90
13521;DHT22;6832;51.186;3.236;2023-05-10T13:05:46;21.60;63.80
13521;DHT22;6832;51.186;3.236;2023-05-10T13:08:13;21.80;64.00
13521;DHT22;6832;51.186;3.236;2023-05-10T13:10:40;21.70;63.90
13521;DHT22;6832;51.186;3.236;2023-05-10T13:13:09;21.70;63.90
13521;DHT22;6832;51.186;3.236;2023-05-10T13:15:36;21.80;64.00
13521;DHT22;6832;51.186;3.236;2023-05-10T13:18:04;21.80;64.00
13521;DHT22;6832;51.186;3.236;2023-05-10T13:20:31;21.80;64.00
13521;DHT22;6832;51.186;3.236;2023-05-10T13:22:58;21.90;64.20
13521;DHT22;6832;51.186;3.236;2023-05-10T13:25:26;21.90;64.10
13521;DHT22;6832;51.186;3.236;2023-05-10T13:27:52;21.90;64.10
13521;DHT22;6832;51.186;3.236;2023-05-10T13:30:21;21.90;64.10
13521;DHT22;6832;51.186;3.236;2023-05-10T13:32:49;22.00;65.00
13521;DHT22;6832;51.186;3.236;2023-05-10T13:35:16;22.00;64.20
13521;DHT22;6832;51.186;3.236;2023-05-10T13:37:44;22.00;64.10
13521;DHT22;6832;51.186;3.236;2023-05-10T13:40:12;22.10;64.20
13521;DHT22;6832;51.186;3.236;2023-05-10T13:42:39;22.10;64.20
13521;DHT22;6832;51.186;3.236;2023-05-10T13:45:07;22.10;64.20
13521;DHT22;6832;51.186;3.236;2023-05-10T13:47:35;22.20;64.30
13521;DHT22;6832;51.186;3.236;2023-05-10T13:50:03;22.20;64.30
13521;DHT22;6832;51.186;3.236;2023-05-10T13:52:30;22.20;64.30
13521;DHT22;6832;51.186;3.236;2023-05-10T13:54:57;22.30;64.40
13521;DHT22;6832;51.186;3.236;2023-05-10T13:57:27;22.30;64.40
13521;DHT22;6832;51.186;3.236;2023-05-10T13:59:58;22.30;64.30
13521;DHT22;6832;51.186;3.236;2023-05-10T14:02:26;22.40;64.40
13521;DHT22;6832;51.186;3.236;2023-05-10T14:04:55;22.40;64.30
13521;DHT22;6832;51.186;3.236;2023-05-10T14:07:22;22.40;64.30
13521;DHT22;6832;51.186;3.236;2023-05-10T14:09:49;22.50;64.30
13521;DHT22;6832;51.186;3.236;2023-05-10T14:12:18;22.50;64.30
13521;DHT22;6832;51.186;3.236;2023-05-10T14:14:45;22.50;64.30
13521;DHT22;6832;51.186;3.236;2023-05-10T14:17:12;22.50;64.20
13521;DHT22;6832;51.186;3.236;2023-05-10T14:19:39;22.60;64.30
13521;DHT22;6832;51.186;3.236;2023-05-10T14:22:08;22.60;64.20
13521;DHT22;6832;51.186;3.236;2023-05-10T14:24:38;22.60;64.30
13521;DHT22;6832;51.186;3.236;2023-05-10T14:27:05;22.60;64.20
13521;DHT22;6832;51.186;3.236;2023-05-10T14:29:32;22.70;64.30
13521;DHT22;6832;51.186;3.236;2023-05-10T14:31:59;22.70;64.30
13521;DHT22;6832;51.186;3.236;2023-05-10T14:34:26;22.70;64.20
13521;DHT22;6832;51.186;3.236;2023-05-10T14:36:53;22.70;64.20
13521;DHT22;6832;51.186;3.236;2023-05-10T14:39:25;22.80;64.30
13521;DHT22;6832;51.186;3.236;2023-05-10T14:41:55;22.80;64.30
13521;DHT22;6832;51.186;3.236;2023-05-10T14:44:23;22.80;64.20
13521;DHT22;6832;51.186;3.236;2023-05-10T14:46:51;22.80;64.20
13521;DHT22;6832;51.186;3.236;2023-05-10T14:49:18;22.80;64.20
13521;DHT22;6832;51.186;3.236;2023-05-10T14:51:48;22.80;64.10
13521;DHT22;6832;51.186;3.236;2023-05-10T14:54:15;22.90;64.20
13521;DHT22;6832;51.186;3.236;2023-05-10T14:56:44;22.90;64.10
13521;DHT22;6832;51.186;3.236;2023-05-10T14:59:11;23.00;64.20
13521;DHT22;6832;51.186;3.236;2023-05-10T15:01:39;22.90;64.10
13521;DHT22;6832;51.186;3.236;2023-05-10T15:04:07;23.00;64.10
13521;DHT22;6832;51.186;3.236;2023-05-10T15:06:38;23.00;64.10
13521;DHT22;6832;51.186;3.236;2023-05-10T15:09:05;23.00;64.10
13521;DHT22;6832;51.186;3.236;2023-05-10T15:11:38;23.00;64.00
13521;DHT22;6832;51.186;3.236;2023-05-10T15:14:07;23.00;64.00
13521;DHT22;6832;51.186;3.236;2023-05-10T15:16:37;23.00;64.00
13521;DHT22;6832;51.186;3.236;2023-05-10T15:19:04;23.00;64.10
13521;DHT22;6832;51.186;3.236;2023-05-10T15:21:34;23.00;64.00
13521;DHT22;6832;51.186;3.236;2023-05-10T15:24:04;23.10;64.10
13521;DHT22;6832;51.186;3.236;2023-05-10T15:26:34;23.10;64.10
13521;DHT22;6832;51.186;3.236;2023-05-10T15:29:01;23.00;63.90
13521;DHT22;6832;51.186;3.236;2023-05-10T15:31:32;23.00;63.90
13521;DHT22;6832;51.186;3.236;2023-05-10T15:34:00;23.00;63.80
13521;DHT22;6832;51.186;3.236;2023-05-10T15:36:27;23.10;63.80
13521;DHT22;6832;51.186;3.236;2023-05-10T15:38:57;23.10;63.70
13521;DHT22;6832;51.186;3.236;2023-05-10T15:41:27;23.10;63.80
13521;DHT22;6832;51.186;3.236;2023-05-10T15:43:54;23.10;63.70
13521;DHT22;6832;51.186;3.236;2023-05-10T15:46:21;23.10;63.80
13521;DHT22;6832;51.186;3.236;2023-05-10T15:48:49;23.10;63.70
13521;DHT22;6832;51.186;3.236;2023-05-10T15:51:17;23.10;63.70
13521;DHT22;6832;51.186;3.236;2023-05-10T15:53:44;23.10;63.70
13521;DHT22;6832;51.186;3.236;2023-05-10T15:56:22;23.10;63.70
13521;DHT22;6832;51.186;3.236;2023-05-10T15:58:50;23.10;63.60
13521;DHT22;6832;51.186;3.236;2023-05-10T16:01:17;23.20;63.80
13521;DHT22;6832;51.186;3.236;2023-05-10T16:03:44;23.20;63.80
13521;DHT22;6832;51.186;3.236;2023-05-10T16:06:12;23.20;63.70
13521;DHT22;6832;51.186;3.236;2023-05-10T16:08:39;23.20;63.80
13521;DHT22;6832;51.186;3.236;2023-05-10T16:11:07;23.20;63.70
13521;DHT22;6832;51.186;3.236;2023-05-10T16:13:34;23.20;63.80
13521;DHT22;6832;51.186;3.236;2023-05-10T16:16:01;23.20;63.70
13521;DHT22;6832;51.186;3.236;2023-05-10T16:18:28;23.20;63.70
13521;DHT22;6832;51.186;3.236;2023-05-10T16:20:57;23.20;63.70
13521;DHT22;6832;51.186;3.236;2023-05-10T16:23:27;23.20;63.70
13521;DHT22;6832;51.186;3.236;2023-05-10T16:25:54;23.20;63.70
13521;DHT22;6832;51.186;3.236;2023-05-10T16:28:24;23.20;63.70
13521;DHT22;6832;51.186;3.236;2023-05-10T16:30:53;23.30;63.80
13521;DHT22;6832;51.186;3.236;2023-05-10T16:33:20;23.30;63.80
13521;DHT22;6832;51.186;3.236;2023-05-10T16:35:47;23.30;63.80
13521;DHT22;6832;51.186;3.236;2023-05-10T16:38:14;23.30;63.80
13521;DHT22;6832;51.186;3.236;2023-05-10T16:40:43;23.30;63.80
13521;DHT22;6832;51.186;3.236;2023-05-10T16:43:10;23.30;63.80
13521;DHT22;6832;51.186;3.236;2023-05-10T16:45:37;23.30;63.80
13521;DHT22;6832;51.186;3.236;2023-05-10T16:48:05;23.30;63.90
13521;DHT22;6832;51.186;3.236;2023-05-10T16:50:32;23.30;63.80
13521;DHT22;6832;51.186;3.236;2023-05-10T16:52:59;23.30;63.70
13521;DHT22;6832;51.186;3.236;2023-05-10T16:55:29;23.30;64.40
13521;DHT22;6832;51.186;3.236;2023-05-10T16:57:57;23.30;63.60
13521;DHT22;6832;51.186;3.236;2023-05-10T17:00:25;23.30;63.60
13521;DHT22;6832;51.186;3.236;2023-05-10T17:02:53;23.30;63.60
13521;DHT22;6832;51.186;3.236;2023-05-10T17:05:22;23.30;63.60
13521;DHT22;6832;51.186;3.236;2023-05-10T17:07:49;23.30;63.60
13521;DHT22;6832;51.186;3.236;2023-05-10T17:10:16;23.30;63.60
13521;DHT22;6832;51.186;3.236;2023-05-10T17:12:46;23.30;63.60
13521;DHT22;6832;51.186;3.236;2023-05-10T17:15:15;23.30;63.60
13521;DHT22;6832;51.186;3.236;2023-05-10T17:17:43;23.40;63.70
13521;DHT22;6832;51.186;3.236;2023-05-10T17:20:11;23.30;63.60
13521;DHT22;6832;51.186;3.236;2023-05-10T17:22:38;23.30;63.60
13521;DHT22;6832;51.186;3.236;2023-05-10T17:25:06;23.30;63.60
13521;DHT22;6832;51.186;3.236;2023-05-10T17:27:33;23.30;63.50
13521;DHT22;6832;51.186;3.236;2023-05-10T17:30:00;23.30;63.60
13521;DHT22;6832;51.186;3.236;2023-05-10T17:32:28;23.30;63.50
13521;DHT22;6832;51.186;3.236;2023-05-10T17:34:56;23.30;63.60
13521;DHT22;6832;51.186;3.236;2023-05-10T17:37:23;23.30;63.50
13521;DHT22;6832;51.186;3.236;2023-05-10T17:39:50;23.30;63.50
13521;DHT22;6832;51.186;3.236;2023-05-10T17:42:17;23.30;63.50
13521;DHT22;6832;51.186;3.236;2023-05-10T17:44:45;23.30;63.50
13521;DHT22;6832;51.186;3.236;2023-05-10T17:47:12;23.30;63.50
13521;DHT22;6832;51.186;3.236;2023-05-10T17:49:40;23.30;63.50
13521;DHT22;6832;51.186;3.236;2023-05-10T17:52:08;23.30;63.50
13521;DHT22;6832;51.186;3.236;2023-05-10T17:54:35;23.30;63.60
13521;DHT22;6832;51.186;3.236;2023-05-10T17:57:02;23.30;63.50
13521;DHT22;6832;51.186;3.236;2023-05-10T17:59:29;23.30;63.50
13521;DHT22;6832;51.186;3.236;2023-05-10T18:01:56;23.30;63.50
13521;DHT22;6832;51.186;3.236;2023-05-10T18:04:23;23.30;63.50
13521;DHT22;6832;51.186;3.236;2023-05-10T18:06:52;23.30;63.50
13521;DHT22;6832;51.186;3.236;2023-05-10T18:09:25;23.30;63.50
13521;DHT22;6832;51.186;3.236;2023-05-10T18:11:52;23.30;63.50
13521;DHT22;6832;51.186;3.236;2023-05-10T18:14:21;23.30;63.50
13521;DHT22;6832;51.186;3.236;2023-05-10T18:16:49;23.30;63.50
13521;DHT22;6832;51.186;3.236;2023-05-10T18:19:17;23.30;63.60
13521;DHT22;6832;51.186;3.236;2023-05-10T18:21:44;23.30;63.60
13521;DHT22;6832;51.186;3.236;2023-05-10T18:24:12;23.30;63.50
13521;DHT22;6832;51.186;3.236;2023-05-10T18:26:39;23.30;63.50
13521;DHT22;6832;51.186;3.236;2023-05-10T18:29:06;23.20;63.40
13521;DHT22;6832;51.186;3.236;2023-05-10T18:31:34;23.30;63.60
13521;DHT22;6832;51.186;3.236;2023-05-10T18:34:01;23.30;63.60
13521;DHT22;6832;51.186;3.236;2023-05-10T18:36:31;23.20;63.50
13521;DHT22;6832;51.186;3.236;2023-05-10T18:38:59;23.30;63.50
13521;DHT22;6832;51.186;3.236;2023-05-10T18:41:27;23.20;63.40
13521;DHT22;6832;51.186;3.236;2023-05-10T18:43:54;23.30;63.60
13521;DHT22;6832;51.186;3.236;2023-05-10T18:46:21;23.20;63.50
13521;DHT22;6832;51.186;3.236;2023-05-10T18:48:48;23.30;63.60
13521;DHT22;6832;51.186;3.236;2023-05-10T18:51:15;23.30;63.60
13521;DHT22;6832;51.186;3.236;2023-05-10T18:53:43;23.30;63.50
13521;DHT22;6832;51.186;3.236;2023-05-10T18:56:16;23.30;63.60
13521;DHT22;6832;51.186;3.236;2023-05-10T18:58:45;23.20;63.40
13521;DHT22;6832;51.186;3.236;2023-05-10T19:01:17;23.30;63.50
13521;DHT22;6832;51.186;3.236;2023-05-10T19:03:45;23.30;63.50
13521;DHT22;6832;51.186;3.236;2023-05-10T19:06:12;23.30;63.50
13521;DHT22;6832;51.186;3.236;2023-05-10T19:08:40;23.20;63.40
13521;DHT22;6832;51.186;3.236;2023-05-10T19:11:16;23.30;63.50
13521;DHT22;6832;51.186;3.236;2023-05-10T19:22:54;23.30;63.30
13521;DHT22;6832;51.186;3.236;2023-05-10T19:25:21;23.20;63.20
13521;DHT22;6832;51.186;3.236;2023-05-10T19:27:53;23.20;63.20
13521;DHT22;6832;51.186;3.236;2023-05-10T19:30:20;23.20;63.20
13521;DHT22;6832;51.186;3.236;2023-05-10T19:32:51;23.10;63.00
13521;DHT22;6832;51.186;3.236;2023-05-10T19:35:18;23.10;63.00
13521;DHT22;6832;51.186;3.236;2023-05-10T19:37:45;23.10;63.10
13521;DHT22;6832;51.186;3.236;2023-05-10T19:40:14;23.10;63.00
13521;DHT22;6832;51.186;3.236;2023-05-10T19:42:42;23.10;63.10
13521;DHT22;6832;51.186;3.236;2023-05-10T19:45:10;23.10;63.00
13521;DHT22;6832;51.186;3.236;2023-05-10T19:47:39;23.00;62.80
13521;DHT22;6832;51.186;3.236;2023-05-10T19:50:10;23.10;63.00
13521;DHT22;6832;51.186;3.236;2023-05-10T19:53:06;23.00;62.80
13521;DHT22;6832;51.186;3.236;2023-05-10T19:55:33;23.10;62.90
13521;DHT22;6832;51.186;3.236;2023-05-10T19:58:01;23.00;62.80
13521;DHT22;6832;51.186;3.236;2023-05-10T20:00:30;23.00;62.80
13521;DHT22;6832;51.186;3.236;2023-05-10T20:02:57;23.00;62.80
13521;DHT22;6832;51.186;3.236;2023-05-10T20:05:25;23.00;62.80
13521;DHT22;6832;51.186;3.236;2023-05-10T20:08:06;22.90;62.60
13521;DHT22;6832;51.186;3.236;2023-05-10T20:10:33;22.90;62.60
13521;DHT22;6832;51.186;3.236;2023-05-10T20:13:01;22.90;62.60
13521;DHT22;6832;51.186;3.236;2023-05-10T20:15:33;22.80;62.50
13521;DHT22;6832;51.186;3.236;2023-05-10T20:18:04;22.80;62.50
13521;DHT22;6832;51.186;3.236;2023-05-10T20:20:35;22.80;62.50
13521;DHT22;6832;51.186;3.236;2023-05-10T20:23:02;22.80;62.50
13521;DHT22;6832;51.186;3.236;2023-05-10T20:25:31;22.80;62.50
13521;DHT22;6832;51.186;3.236;2023-05-10T20:27:59;22.80;62.50
13521;DHT22;6832;51.186;3.236;2023-05-10T20:30:28;22.80;62.50
13521;DHT22;6832;51.186;3.236;2023-05-10T20:32:56;22.70;62.40